Time;durP1;ratioP1;P1;durP2;ratioP2;P2;SDS_P1;SDS_P2;PMS_P1;PMS_P2;Temp;Humidity;BMP_temperature;BMP_pressure;BME280_temperature;BME280_humidity;BME280_pressure;Samples;Min_cycle;Max_cycle;Signal;HPM_P1;HPM_P2
2021/09/18 00:00:16;;;;;;;;;;;;;;;;;;2110061;27;4421;-75
2021/09/18 00:01:16;;;;;;;;;;;;;;;;;;2110154;27;3783;-75
2021/09/18 00:02:17;;;;;;;;;;;;;;;;;;2112490;27;2476;-75
2021/09/18 00:03:17;;;;;;;;;;;;;;;;;;2111382;27;2436;-75
2021/09/18 00:04:22;;;;;;;;;;;;;;;;;;2111670;27;2675;-75
2021/09/18 00:05:22;;;;;;;;;;;;;;;;;;2111328;27;3203;-75
2021/09/18 00:06:23;;;;;;;;;;;;;;;;;;2108100;27;3805;-75
2021/09/18 00:07:23;;;;;;;;;;;;;;;;;;2110623;27;2417;-75
2021/09/18 00:08:24;;;;;;;;;;;;;;;;;;2109166;27;2691;-75
2021/09/18 00:09:24;;;;;;;;;;;;;;;;;;2112268;27;2483;-75
2021/09/18 00:10:25;;;;;;;;;;;;;;;;;;2113082;27;2611;-75
2021/09/18 00:11:25;;;;;;;;;;;;;;;;;;2111510;27;1045;-75
2021/09/18 00:12:26;;;;;;;;;;;;;;;;;;2111654;27;2493;-75
2021/09/18 00:13:26;;;;;;;;;;;;;;;;;;2111702;27;1111;-75
2021/09/18 00:14:28;;;;;;;;;;;;;;;;;;2112467;27;1042;-75
2021/09/18 00:15:30;;;;;;;;;;;;;;;;;;2111648;27;4352;-75
2021/09/18 00:16:31;;;;;;;;;;;;;;;;;;2113454;27;994;-75
2021/09/18 00:17:31;;;;;;;;;;;;;;;;;;2113143;27;2338;-75
2021/09/18 00:18:32;;;;;;;;;;;;;;;;;;2114321;27;974;-75
2021/09/18 00:19:32;;;;;;;;;;;;;;;;;;2114074;27;1070;-75
2021/09/18 00:20:35;;;;;;;;;;;;;;;;;;2114310;27;1096;-75
2021/09/18 00:21:35;;;;;;;;;;;;;;;;;;2113730;27;1103;-75
2021/09/18 00:22:36;;;;;;;;;;;;;;;;;;2114975;27;1091;-75
2021/09/18 00:23:36;;;;;;;;;;;;;;;;;;2113493;27;1073;-75
2021/09/18 00:24:37;;;;;;;;;;;;;;;;;;2110429;27;1079;-75
2021/09/18 00:25:37;;;;;;;;;;;;;;;;;;2108701;27;2065;-75
2021/09/18 00:26:38;;;;;;;;;;;;;;;;;;2108196;27;1243;-75
2021/09/18 00:27:39;;;;;;;;;;;;;;;;;;2107890;27;3022;-75
2021/09/18 00:28:40;;;;;;;;;;;;;;;;;;2109236;27;2192;-75
2021/09/18 00:29:40;;;;;;;;;;;;;;;;;;2109249;27;1986;-75
2021/09/18 00:30:41;;;;;;;;;;;;;;;;;;2108559;27;1203;-75
2021/09/18 00:31:41;;;;;;;;;;;;;;;;;;2108540;27;5281;-75
2021/09/18 00:32:42;;;;;;;;;;;;;;;;;;2108357;27;3028;-75
2021/09/18 00:33:42;;;;;;;;;;;;;;;;;;2108951;27;1100;-75
2021/09/18 00:34:44;;;;;;;;;;;;;;;;;;2108878;27;1009;-75
2021/09/18 00:35:44;;;;;;;;;;;;;;;;;;2109213;27;2439;-75
2021/09/18 00:36:45;;;;;;;;;;;;;;;;;;2107879;27;2250;-75
2021/09/18 00:37:45;;;;;;;;;;;;;;;;;;2109328;27;2712;-75
2021/09/18 00:38:46;;;;;;;;;;;;;;;;;;2110205;27;1066;-75
2021/09/18 00:39:46;;;;;;;;;;;;;;;;;;2109676;27;1053;-75
2021/09/18 00:40:47;;;;;;;;;;;;;;;;;;2108856;27;1118;-75
2021/09/18 00:41:47;;;;;;;;;;;;;;;;;;2108480;27;1052;-75
2021/09/18 00:42:48;;;;;;;;;;;;;;;;;;2109746;27;1006;-75
2021/09/18 00:43:49;;;;;;;;;;;;;;;;;;2109618;27;1070;-75
2021/09/18 00:44:50;;;;;;;;;;;;;;;;;;2109861;27;1083;-75
2021/09/18 00:45:50;;;;;;;;;;;;;;;;;;2106698;27;4785;-75
2021/09/18 00:46:51;;;;;;;;;;;;;;;;;;2108818;27;3614;-75
2021/09/18 00:47:51;;;;;;;;;;;;;;;;;;2109469;27;1048;-75
2021/09/18 00:48:52;;;;;;;;;;;;;;;;;;2108890;27;3480;-75
2021/09/18 00:49:53;;;;;;;;;;;;;;;;;;2108015;27;4015;-75
2021/09/18 00:50:54;;;;;;;;;;;;;;;;;;2108759;27;2404;-75
2021/09/18 00:51:54;;;;;;;;;;;;;;;;;;2108463;27;3363;-75
2021/09/18 00:52:55;;;;;;;;;;;;;;;;;;2109575;27;2869;-75
2021/09/18 00:53:55;;;;;;;;;;;;;;;;;;2108565;27;2380;-75
2021/09/18 00:54:56;;;;;;;;;;;;;;;;;;2106549;27;5677;-75
2021/09/18 00:55:56;;;;;;;;;;;;;;;;;;2110303;27;1373;-75
2021/09/18 00:56:57;;;;;;;;;;;;;;;;;;2109566;27;4026;-75
2021/09/18 00:57:57;;;;;;;;;;;;;;;;;;2110537;27;3870;-75
2021/09/18 00:58:58;;;;;;;;;;;;;;;;;;2110561;27;3400;-75
2021/09/18 01:00:02;;;;;;;;;;;;;;;;;;2111077;27;2100;-75
2021/09/18 01:01:03;;;;;;;;;;;;;;;;;;2108517;27;3080;-75
2021/09/18 01:02:04;;;;;;;;;;;;;;;;;;2110640;27;3848;-75
2021/09/18 01:03:05;;;;;;;;;;;;;;;;;;2110134;27;3942;-75
2021/09/18 01:04:05;;;;;;;;;;;;;;;;;;2110314;27;2428;-75
2021/09/18 01:05:06;;;;;;;;;;;;;;;;;;2108352;27;4042;-75
2021/09/18 01:06:07;;;;;;;;;;;;;;;;;;2103456;27;2724;-75
2021/09/18 01:07:07;;;;;;;;;;;;;;;;;;2109332;27;3963;-75
2021/09/18 01:08:10;;;;;;;;;;;;;;;;;;2108483;27;5871;-75
2021/09/18 01:09:10;;;;;;;;;;;;;;;;;;2111350;27;2954;-75
2021/09/18 01:10:11;;;;;;;;;;;;;;;;;;2110049;27;4084;-75
2021/09/18 01:11:12;;;;;;;;;;;;;;;;;;2111191;27;1172;-75
2021/09/18 01:12:13;;;;;;;;;;;;;;;;;;2111561;27;3034;-75
2021/09/18 01:13:18;;;;;;;;;;;;;;;;;;2112330;27;3995;-75
2021/09/18 01:14:19;;;;;;;;;;;;;;;;;;2112997;27;1033;-75
2021/09/18 01:15:19;;;;;;;;;;;;;;;;;;2111640;27;4163;-75
2021/09/18 01:16:20;;;;;;;;;;;;;;;;;;2111320;27;3375;-75
2021/09/18 01:17:20;;;;;;;;;;;;;;;;;;2112525;27;1033;-75
2021/09/18 01:18:21;;;;;;;;;;;;;;;;;;2111709;27;3216;-75
2021/09/18 01:19:21;;;;;;;;;;;;;;;;;;2113137;27;3506;-75
2021/09/18 01:20:22;;;;;;;;;;;;;;;;;;2112798;27;1155;-75
2021/09/18 01:21:23;;;;;;;;;;;;;;;;;;2111175;27;3892;-75
2021/09/18 01:22:24;;;;;;;;;;;;;;;;;;2110219;27;3045;-76
2021/09/18 01:23:25;;;;;;;;;;;;;;;;;;2107944;27;4419;-75
2021/09/18 01:24:25;;;;;;;;;;;;;;;;;;2108081;27;2499;-75
2021/09/18 01:25:26;;;;;;;;;;;;;;;;;;2105978;27;4009;-75
2021/09/18 01:26:26;;;;;;;;;;;;;;;;;;2106285;27;2361;-75
2021/09/18 01:27:27;;;;;;;;;;;;;;;;;;2108237;27;2735;-75
2021/09/18 01:28:27;;;;;;;;;;;;;;;;;;2108150;27;2383;-75
2021/09/18 01:29:28;;;;;;;;;;;;;;;;;;2107904;27;1933;-75
2021/09/18 01:30:29;;;;;;;;;;;;;;;;;;2104933;27;3761;-75
2021/09/18 01:31:30;;;;;;;;;;;;;;;;;;2107248;27;1084;-75
2021/09/18 01:32:30;;;;;;;;;;;;;;;;;;2107184;27;1113;-75
2021/09/18 01:33:31;;;;;;;;;;;;;;;;;;2106880;27;3255;-75
2021/09/18 01:34:31;;;;;;;;;;;;;;;;;;2107280;27;1163;-75
2021/09/18 01:35:33;;;;;;;;;;;;;;;;;;2106596;27;3282;-75
2021/09/18 01:36:33;;;;;;;;;;;;;;;;;;2105680;27;4207;-75
2021/09/18 01:37:34;;;;;;;;;;;;;;;;;;2107759;27;3843;-75
2021/09/18 01:38:35;;;;;;;;;;;;;;;;;;2105679;27;1049;-75
2021/09/18 01:39:35;;;;;;;;;;;;;;;;;;2106995;27;2641;-75
2021/09/18 01:40:36;;;;;;;;;;;;;;;;;;2106543;27;2427;-75
2021/09/18 01:41:36;;;;;;;;;;;;;;;;;;2104701;27;2569;-75
2021/09/18 01:42:37;;;;;;;;;;;;;;;;;;2106238;27;3390;-75
2021/09/18 01:43:39;;;;;;;;;;;;;;;;;;2105332;27;1132;-75
2021/09/18 01:44:39;;;;;;;;;;;;;;;;;;2106335;27;3404;-75
2021/09/18 01:45:40;;;;;;;;;;;;;;;;;;2105808;27;2191;-75
2021/09/18 01:46:40;;;;;;;;;;;;;;;;;;2105534;27;3992;-75
2021/09/18 01:47:41;;;;;;;;;;;;;;;;;;2106086;27;3834;-75
2021/09/18 01:48:41;;;;;;;;;;;;;;;;;;2106307;27;4054;-75
2021/09/18 01:49:44;;;;;;;;;;;;;;;;;;2105393;27;2873;-75
2021/09/18 01:50:46;;;;;;;;;;;;;;;;;;2107370;27;1203;-75
2021/09/18 01:51:54;;;;;;;;;;;;;;;;;;2147863;22;4178;-76
2021/09/18 01:53:04;;;;;;;;;;;;;;;;;;2098081;28;2863;-76
2021/09/18 01:54:05;;;;;;;;;;;;;;;;;;2097514;28;1467;-76
2021/09/18 01:55:05;;;;;;;;;;;;;;;;;;2097741;28;3849;-76
2021/09/18 01:56:06;;;;;;;;;;;;;;;;;;2096277;28;3186;-76
2021/09/18 01:57:06;;;;;;;;;;;;;;;;;;2097938;28;2418;-76
2021/09/18 01:58:07;;;;;;;;;;;;;;;;;;2097897;28;4050;-76
2021/09/18 01:59:07;;;;;;;;;;;;;;;;;;2097642;28;2721;-76
2021/09/18 02:00:09;;;;;;;;;;;;;;;;;;2097675;28;3555;-76
2021/09/18 02:01:10;;;;;;;;;;;;;;;;;;2097229;28;3541;-76
2021/09/18 02:02:11;;;;;;;;;;;;;;;;;;2101660;28;1274;-75
2021/09/18 02:03:13;;;;;;;;;;;;;;;;;;2100477;28;3979;-76
2021/09/18 02:04:13;;;;;;;;;;;;;;;;;;2101335;28;1033;-76
2021/09/18 02:05:14;;;;;;;;;;;;;;;;;;2095945;28;3443;-76
2021/09/18 02:06:16;;;;;;;;;;;;;;;;;;2096143;28;2526;-76
2021/09/18 02:07:17;;;;;;;;;;;;;;;;;;2096866;28;2740;-76
2021/09/18 02:08:17;;;;;;;;;;;;;;;;;;2095361;28;3806;-76
2021/09/18 02:09:18;;;;;;;;;;;;;;;;;;2097289;28;2567;-76
2021/09/18 02:10:18;;;;;;;;;;;;;;;;;;2097015;28;2024;-76
2021/09/18 02:11:21;;;;;;;;;;;;;;;;;;2092743;28;3993;-76
2021/09/18 02:12:21;;;;;;;;;;;;;;;;;;2095743;28;1177;-76
2021/09/18 02:13:22;;;;;;;;;;;;;;;;;;2096257;28;1220;-76
2021/09/18 02:14:22;;;;;;;;;;;;;;;;;;2095620;28;3628;-76
2021/09/18 02:15:23;;;;;;;;;;;;;;;;;;2094662;28;3514;-76
2021/09/18 02:16:23;;;;;;;;;;;;;;;;;;2094705;28;3573;-76
2021/09/18 02:17:24;;;;;;;;;;;;;;;;;;2096738;28;1142;-76
2021/09/18 02:18:26;;;;;;;;;;;;;;;;;;2096281;28;2631;-76
2021/09/18 02:19:26;;;;;;;;;;;;;;;;;;2095442;28;3720;-76
2021/09/18 02:20:27;;;;;;;;;;;;;;;;;;2096817;28;4331;-76
2021/09/18 02:21:27;;;;;;;;;;;;;;;;;;2097685;28;1240;-76
2021/09/18 02:22:28;;;;;;;;;;;;;;;;;;2096312;28;2812;-76
2021/09/18 02:23:28;;;;;;;;;;;;;;;;;;2096202;28;3987;-76
2021/09/18 02:24:29;;;;;;;;;;;;;;;;;;2097370;28;3090;-76
2021/09/18 02:26:48;;;;;;;;;;;;;;;;;;2094631;28;3009;-76
2021/09/18 02:27:49;;;;;;;;;;;;;;;;;;2097142;28;3433;-76
2021/09/18 02:28:50;;;;;;;;;;;;;;;;;;2098221;28;1046;-76
2021/09/18 02:29:50;;;;;;;;;;;;;;;;;;2096608;28;3475;-76
2021/09/18 02:30:51;;;;;;;;;;;;;;;;;;2098469;28;1213;-76
2021/09/18 02:31:51;;;;;;;;;;;;;;;;;;2096199;28;2971;-76
2021/09/18 02:32:52;;;;;;;;;;;;;;;;;;2098095;28;1025;-76
2021/09/18 02:33:52;;;;;;;;;;;;;;;;;;2096759;28;3400;-76
2021/09/18 02:34:53;;;;;;;;;;;;;;;;;;2097842;28;2025;-76
2021/09/18 02:35:53;;;;;;;;;;;;;;;;;;2098047;28;3460;-76
2021/09/18 02:36:55;;;;;;;;;;;;;;;;;;2096648;28;3003;-76
2021/09/18 02:37:55;;;;;;;;;;;;;;;;;;2098513;28;2648;-75
2021/09/18 02:38:56;;;;;;;;;;;;;;;;;;2098367;28;2434;-75
2021/09/18 02:39:56;;;;;;;;;;;;;;;;;;2098007;28;1233;-75
2021/09/18 02:40:57;;;;;;;;;;;;;;;;;;2098584;28;1416;-75
2021/09/18 02:41:57;;;;;;;;;;;;;;;;;;2096533;28;2959;-76
2021/09/18 02:42:58;;;;;;;;;;;;;;;;;;2097235;28;3208;-76
2021/09/18 02:43:58;;;;;;;;;;;;;;;;;;2096552;28;3010;-75
2021/09/18 02:44:59;;;;;;;;;;;;;;;;;;2096381;28;3463;-76
2021/09/18 02:46:00;;;;;;;;;;;;;;;;;;2097702;28;1125;-75
2021/09/18 02:47:03;;;;;;;;;;;;;;;;;;2094535;28;3833;-76
2021/09/18 02:48:03;;;;;;;;;;;;;;;;;;2097124;28;1141;-76
2021/09/18 02:49:04;;;;;;;;;;;;;;;;;;2098758;28;1241;-76
2021/09/18 02:50:04;;;;;;;;;;;;;;;;;;2096750;28;2655;-76
2021/09/18 02:51:05;;;;;;;;;;;;;;;;;;2096607;28;4022;-76
2021/09/18 02:52:05;;;;;;;;;;;;;;;;;;2097301;28;2589;-76
2021/09/18 02:53:06;;;;;;;;;;;;;;;;;;2097044;28;2569;-76
2021/09/18 02:54:07;;;;;;;;;;;;;;;;;;2095749;28;2765;-76
2021/09/18 02:55:08;;;;;;;;;;;;;;;;;;2096194;28;3337;-76
2021/09/18 02:56:08;;;;;;;;;;;;;;;;;;2096642;28;1040;-76
2021/09/18 02:57:09;;;;;;;;;;;;;;;;;;2096012;28;2522;-76
2021/09/18 02:58:10;;;;;;;;;;;;;;;;;;2095689;28;3273;-76
2021/09/18 02:59:10;;;;;;;;;;;;;;;;;;2096593;28;4139;-76
2021/09/18 03:00:11;;;;;;;;;;;;;;;;;;2096791;28;1074;-76
2021/09/18 03:01:11;;;;;;;;;;;;;;;;;;2095986;28;1974;-76
2021/09/18 03:02:12;;;;;;;;;;;;;;;;;;2096898;28;2804;-76
2021/09/18 03:03:12;;;;;;;;;;;;;;;;;;2095154;28;3684;-76
2021/09/18 03:04:14;;;;;;;;;;;;;;;;;;2096339;28;1166;-76
2021/09/18 03:05:14;;;;;;;;;;;;;;;;;;2095561;28;2514;-76
2021/09/18 03:06:15;;;;;;;;;;;;;;;;;;2095391;28;3482;-76
2021/09/18 03:07:15;;;;;;;;;;;;;;;;;;2097018;28;1034;-76
2021/09/18 03:08:16;;;;;;;;;;;;;;;;;;2096581;28;2428;-76
2021/09/18 03:09:16;;;;;;;;;;;;;;;;;;2095722;28;3849;-76
2021/09/18 03:10:17;;;;;;;;;;;;;;;;;;2095591;28;2308;-76
2021/09/18 03:11:17;;;;;;;;;;;;;;;;;;2094499;28;3084;-76
2021/09/18 03:12:19;;;;;;;;;;;;;;;;;;2094972;28;2117;-76
2021/09/18 03:13:19;;;;;;;;;;;;;;;;;;2095702;28;1974;-76
2021/09/18 03:14:20;;;;;;;;;;;;;;;;;;2096434;28;4095;-76
2021/09/18 03:15:20;;;;;;;;;;;;;;;;;;2095294;28;4011;-75
2021/09/18 03:16:21;;;;;;;;;;;;;;;;;;2096420;28;1049;-76
2021/09/18 03:17:22;;;;;;;;;;;;;;;;;;2096318;28;1141;-76
2021/09/18 03:18:22;;;;;;;;;;;;;;;;;;2095638;28;2486;-76
2021/09/18 03:19:23;;;;;;;;;;;;;;;;;;2093976;28;3011;-76
2021/09/18 03:20:23;;;;;;;;;;;;;;;;;;2094960;28;3595;-76
2021/09/18 03:21:25;;;;;;;;;;;;;;;;;;2093546;28;3963;-76
2021/09/18 03:22:25;;;;;;;;;;;;;;;;;;2094818;28;4008;-76
2021/09/18 03:23:26;;;;;;;;;;;;;;;;;;2094441;28;2778;-76
2021/09/18 03:24:26;;;;;;;;;;;;;;;;;;2096193;28;1144;-76
2021/09/18 03:25:27;;;;;;;;;;;;;;;;;;2094093;28;2464;-76
2021/09/18 03:26:30;;;;;;;;;;;;;;;;;;2095496;28;3041;-76
2021/09/18 03:27:31;;;;;;;;;;;;;;;;;;2094655;28;2699;-76
2021/09/18 03:28:31;;;;;;;;;;;;;;;;;;2095527;28;2474;-76
2021/09/18 03:29:32;;;;;;;;;;;;;;;;;;2095114;28;3260;-76
2021/09/18 03:30:32;;;;;;;;;;;;;;;;;;2093518;28;2308;-76
2021/09/18 03:31:36;;;;;;;;;;;;;;;;;;2093225;28;3250;-76
2021/09/18 03:32:37;;;;;;;;;;;;;;;;;;2093294;28;2935;-76
2021/09/18 03:33:39;;;;;;;;;;;;;;;;;;2092221;28;3813;-76
2021/09/18 03:34:42;;;;;;;;;;;;;;;;;;2096197;28;1030;-76
2021/09/18 03:35:42;;;;;;;;;;;;;;;;;;2093232;28;3755;-76
2021/09/18 03:36:43;;;;;;;;;;;;;;;;;;2093399;28;3686;-76
2021/09/18 03:37:43;;;;;;;;;;;;;;;;;;2093661;28;4092;-76
2021/09/18 03:38:45;;;;;;;;;;;;;;;;;;2096356;28;1038;-76
2021/09/18 03:39:45;;;;;;;;;;;;;;;;;;2095497;28;3168;-76
2021/09/18 03:40:46;;;;;;;;;;;;;;;;;;2095315;28;3426;-76
2021/09/18 03:42:40;;;;;;;;;;;;;;;;;;2115447;27;2498;-77
2021/09/18 03:43:40;;;;;;;;;;;;;;;;;;2110061;27;1108;-77
2021/09/18 03:44:41;;;;;;;;;;;;;;;;;;2110408;27;2342;-76
2021/09/18 03:45:41;;;;;;;;;;;;;;;;;;2110514;27;3033;-75
2021/09/18 03:46:42;;;;;;;;;;;;;;;;;;2109859;27;3856;-75
2021/09/18 03:47:42;;;;;;;;;;;;;;;;;;2110379;27;3935;-75
2021/09/18 03:48:43;;;;;;;;;;;;;;;;;;2108572;27;3657;-75
2021/09/18 03:49:45;;;;;;;;;;;;;;;;;;2109893;27;2508;-75
2021/09/18 03:50:46;;;;;;;;;;;;;;;;;;2110200;27;3757;-75
2021/09/18 03:51:46;;;;;;;;;;;;;;;;;;2110885;27;1263;-75
2021/09/18 03:52:47;;;;;;;;;;;;;;;;;;2109448;27;3963;-75
2021/09/18 03:53:48;;;;;;;;;;;;;;;;;;2110434;27;4273;-75
2021/09/18 03:54:49;;;;;;;;;;;;;;;;;;2109771;27;2891;-75
2021/09/18 03:55:49;;;;;;;;;;;;;;;;;;2108370;27;3480;-75
2021/09/18 03:56:50;;;;;;;;;;;;;;;;;;2110676;27;3210;-75
2021/09/18 03:57:50;;;;;;;;;;;;;;;;;;2111966;27;1048;-75
2021/09/18 03:58:51;;;;;;;;;;;;;;;;;;2108787;27;2983;-75
2021/09/18 03:59:51;;;;;;;;;;;;;;;;;;2109635;27;1336;-75
2021/09/18 04:00:52;;;;;;;;;;;;;;;;;;2110613;27;2454;-75
2021/09/18 04:01:53;;;;;;;;;;;;;;;;;;2110057;27;1906;-75
2021/09/18 04:02:54;;;;;;;;;;;;;;;;;;2110826;27;1028;-75
2021/09/18 04:03:55;;;;;;;;;;;;;;;;;;2109668;27;2817;-75
2021/09/18 04:04:57;;;;;;;;;;;;;;;;;;2108130;27;3836;-75
2021/09/18 04:05:58;;;;;;;;;;;;;;;;;;2109084;27;3297;-75
2021/09/18 04:06:59;;;;;;;;;;;;;;;;;;2110794;27;1097;-75
2021/09/18 04:07:59;;;;;;;;;;;;;;;;;;2112030;27;1127;-75
2021/09/18 04:09:00;;;;;;;;;;;;;;;;;;2110124;27;2591;-75
2021/09/18 04:10:00;;;;;;;;;;;;;;;;;;2112048;27;1077;-75
2021/09/18 04:11:01;;;;;;;;;;;;;;;;;;2109302;27;2798;-75
2021/09/18 04:12:02;;;;;;;;;;;;;;;;;;2110684;27;2350;-75
2021/09/18 04:13:03;;;;;;;;;;;;;;;;;;2112028;27;3051;-75
2021/09/18 04:14:03;;;;;;;;;;;;;;;;;;2111054;27;1049;-75
2021/09/18 04:15:04;;;;;;;;;;;;;;;;;;2109333;27;2846;-75
2021/09/18 04:16:04;;;;;;;;;;;;;;;;;;2108965;27;4222;-75
2021/09/18 04:17:05;;;;;;;;;;;;;;;;;;2110781;27;4412;-75
2021/09/18 04:18:05;;;;;;;;;;;;;;;;;;2111343;27;1585;-75
2021/09/18 04:19:06;;;;;;;;;;;;;;;;;;2110379;27;1093;-75
2021/09/18 04:20:07;;;;;;;;;;;;;;;;;;2102415;27;3620;-75
2021/09/18 04:21:08;;;;;;;;;;;;;;;;;;2108786;27;4166;-75
2021/09/18 04:22:08;;;;;;;;;;;;;;;;;;2111693;27;2129;-75
2021/09/18 04:23:09;;;;;;;;;;;;;;;;;;2110125;27;3104;-75
2021/09/18 04:24:09;;;;;;;;;;;;;;;;;;2110588;27;3242;-75
2021/09/18 04:25:10;;;;;;;;;;;;;;;;;;2109609;27;3936;-75
2021/09/18 04:26:10;;;;;;;;;;;;;;;;;;2108740;27;2343;-75
2021/09/18 04:27:11;;;;;;;;;;;;;;;;;;2108914;27;3189;-75
2021/09/18 04:28:12;;;;;;;;;;;;;;;;;;2108915;27;2780;-75
2021/09/18 04:29:13;;;;;;;;;;;;;;;;;;2110421;27;3031;-75
2021/09/18 04:30:13;;;;;;;;;;;;;;;;;;2106357;27;3559;-75
2021/09/18 04:31:14;;;;;;;;;;;;;;;;;;2110905;27;2200;-75
2021/09/18 04:32:14;;;;;;;;;;;;;;;;;;2111053;27;2513;-75
2021/09/18 04:33:15;;;;;;;;;;;;;;;;;;2109893;27;2244;-75
2021/09/18 04:34:15;;;;;;;;;;;;;;;;;;2110070;27;3346;-75
2021/09/18 04:35:17;;;;;;;;;;;;;;;;;;2108690;27;3937;-75
2021/09/18 04:36:17;;;;;;;;;;;;;;;;;;2108901;27;2871;-76
2021/09/18 04:37:18;;;;;;;;;;;;;;;;;;2110736;27;2918;-75
2021/09/18 04:38:18;;;;;;;;;;;;;;;;;;2110181;27;2844;-75
2021/09/18 04:39:19;;;;;;;;;;;;;;;;;;2109957;27;2720;-75
2021/09/18 04:40:20;;;;;;;;;;;;;;;;;;2109836;27;2687;-75
2021/09/18 04:41:21;;;;;;;;;;;;;;;;;;2109944;27;2080;-75
2021/09/18 04:42:21;;;;;;;;;;;;;;;;;;2111287;27;1909;-75
2021/09/18 04:43:22;;;;;;;;;;;;;;;;;;2110625;27;1144;-75
2021/09/18 04:44:25;;;;;;;;;;;;;;;;;;2111216;27;2830;-75
2021/09/18 04:45:26;;;;;;;;;;;;;;;;;;2109465;27;3459;-75
2021/09/18 04:46:26;;;;;;;;;;;;;;;;;;2109854;27;2500;-75
2021/09/18 04:47:27;;;;;;;;;;;;;;;;;;2111257;27;4096;-75
2021/09/18 04:48:27;;;;;;;;;;;;;;;;;;2110817;27;1121;-75
2021/09/18 04:49:28;;;;;;;;;;;;;;;;;;2111197;27;1209;-75
2021/09/18 04:50:29;;;;;;;;;;;;;;;;;;2108553;27;3018;-75
2021/09/18 04:51:31;;;;;;;;;;;;;;;;;;2108640;27;3847;-75
2021/09/18 04:52:31;;;;;;;;;;;;;;;;;;2109383;27;3902;-75
2021/09/18 04:53:32;;;;;;;;;;;;;;;;;;2104479;28;3272;-75
2021/09/18 04:54:32;;;;;;;;;;;;;;;;;;2103790;28;3753;-75
2021/09/18 04:55:33;;;;;;;;;;;;;;;;;;2100540;28;3993;-75
2021/09/18 04:56:34;;;;;;;;;;;;;;;;;;2096595;28;5397;-75
2021/09/18 04:57:35;;;;;;;;;;;;;;;;;;2100294;28;4369;-75
2021/09/18 04:58:35;;;;;;;;;;;;;;;;;;2102832;28;4251;-75
2021/09/18 04:59:36;;;;;;;;;;;;;;;;;;2097617;28;3951;-75
2021/09/18 05:00:36;;;;;;;;;;;;;;;;;;2100798;28;4448;-75
2021/09/18 05:01:37;;;;;;;;;;;;;;;;;;2103430;27;3857;-75
2021/09/18 05:02:37;;;;;;;;;;;;;;;;;;2100846;28;4036;-75
2021/09/18 05:03:38;;;;;;;;;;;;;;;;;;2103530;28;4117;-75
2021/09/18 05:04:40;;;;;;;;;;;;;;;;;;2104719;28;2285;-75
2021/09/18 05:05:40;;;;;;;;;;;;;;;;;;2099935;28;4180;-75
2021/09/18 05:06:41;;;;;;;;;;;;;;;;;;2101291;28;3889;-75
2021/09/18 05:07:41;;;;;;;;;;;;;;;;;;2102571;28;3627;-75
2021/09/18 05:08:42;;;;;;;;;;;;;;;;;;2104480;28;3938;-75
2021/09/18 05:09:45;;;;;;;;;;;;;;;;;;2104819;28;4002;-75
2021/09/18 05:10:46;;;;;;;;;;;;;;;;;;2102879;28;4400;-75
2021/09/18 05:11:46;;;;;;;;;;;;;;;;;;2103223;28;4256;-75
2021/09/18 05:12:48;;;;;;;;;;;;;;;;;;2102498;28;3761;-75
2021/09/18 05:13:48;;;;;;;;;;;;;;;;;;2101605;28;4061;-75
2021/09/18 05:14:49;;;;;;;;;;;;;;;;;;2104406;28;4256;-75
2021/09/18 05:15:49;;;;;;;;;;;;;;;;;;2100780;28;4517;-75
2021/09/18 05:16:50;;;;;;;;;;;;;;;;;;2100114;28;4116;-75
2021/09/18 05:17:50;;;;;;;;;;;;;;;;;;2103683;28;4268;-75
2021/09/18 05:18:51;;;;;;;;;;;;;;;;;;2104471;28;3824;-75
2021/09/18 05:19:51;;;;;;;;;;;;;;;;;;2103461;28;4106;-75
2021/09/18 05:20:52;;;;;;;;;;;;;;;;;;2102249;28;4031;-75
2021/09/18 05:21:53;;;;;;;;;;;;;;;;;;2102677;28;3743;-75
2021/09/18 05:22:54;;;;;;;;;;;;;;;;;;2102724;27;4206;-75
2021/09/18 05:23:54;;;;;;;;;;;;;;;;;;2100935;28;4082;-75
2021/09/18 05:24:55;;;;;;;;;;;;;;;;;;2100528;28;4596;-75
2021/09/18 05:25:55;;;;;;;;;;;;;;;;;;2100785;28;4256;-75
2021/09/18 05:26:56;;;;;;;;;;;;;;;;;;2100156;28;4586;-75
2021/09/18 05:27:56;;;;;;;;;;;;;;;;;;2099940;28;4148;-75
2021/09/18 05:28:57;;;;;;;;;;;;;;;;;;2105338;28;4438;-75
2021/09/18 05:29:57;;;;;;;;;;;;;;;;;;2103627;28;4087;-75
2021/09/18 05:31:00;;;;;;;;;;;;;;;;;;2100498;28;4256;-75
2021/09/18 05:32:00;;;;;;;;;;;;;;;;;;2103489;28;5227;-75
2021/09/18 05:33:01;;;;;;;;;;;;;;;;;;2104528;28;1898;-75
2021/09/18 05:34:01;;;;;;;;;;;;;;;;;;2101946;28;3874;-74
2021/09/18 05:35:02;;;;;;;;;;;;;;;;;;2098364;28;4241;-75
2021/09/18 05:36:03;;;;;;;;;;;;;;;;;;2097013;28;3885;-75
2021/09/18 05:37:04;;;;;;;;;;;;;;;;;;2097803;28;3933;-75
2021/09/18 05:38:04;;;;;;;;;;;;;;;;;;2104779;28;1485;-75
2021/09/18 05:39:05;;;;;;;;;;;;;;;;;;2101746;28;4205;-75
2021/09/18 05:40:05;;;;;;;;;;;;;;;;;;2103206;28;3875;-75
2021/09/18 05:41:07;;;;;;;;;;;;;;;;;;2102689;28;5167;-75
2021/09/18 05:42:08;;;;;;;;;;;;;;;;;;2104934;28;2042;-75
2021/09/18 05:43:09;;;;;;;;;;;;;;;;;;2104526;28;3873;-75
2021/09/18 05:44:10;;;;;;;;;;;;;;;;;;2103897;28;4464;-75
2021/09/18 05:45:11;;;;;;;;;;;;;;;;;;2102948;28;4246;-75
2021/09/18 05:46:11;;;;;;;;;;;;;;;;;;2103807;28;4044;-75
2021/09/18 05:47:13;;;;;;;;;;;;;;;;;;2103332;28;4288;-75
2021/09/18 05:48:13;;;;;;;;;;;;;;;;;;2102821;28;4465;-75
2021/09/18 05:49:14;;;;;;;;;;;;;;;;;;2104585;28;1744;-75
2021/09/18 05:50:15;;;;;;;;;;;;;;;;;;2105265;28;1143;-75
2021/09/18 05:51:15;;;;;;;;;;;;;;;;;;2103429;28;1030;-75
2021/09/18 05:52:16;;;;;;;;;;;;;;;;;;2104677;28;4158;-75
2021/09/18 05:53:16;;;;;;;;;;;;;;;;;;2103245;28;1616;-75
2021/09/18 05:54:17;;;;;;;;;;;;;;;;;;2105117;28;1073;-75
2021/09/18 05:55:17;;;;;;;;;;;;;;;;;;2102924;28;4014;-75
2021/09/18 05:56:19;;;;;;;;;;;;;;;;;;2102831;28;3900;-75
2021/09/18 05:57:19;;;;;;;;;;;;;;;;;;2102759;28;3391;-75
2021/09/18 05:58:20;;;;;;;;;;;;;;;;;;2102016;28;3897;-75
2021/09/18 05:59:20;;;;;;;;;;;;;;;;;;2103639;28;4163;-75
2021/09/18 06:00:21;;;;;;;;;;;;;;;;;;2103515;28;3955;-75
2021/09/18 06:01:21;;;;;;;;;;;;;;;;;;2103976;28;1049;-75
2021/09/18 06:02:23;;;;;;;;;;;;;;;;;;2104981;28;1930;-75
2021/09/18 06:03:23;;;;;;;;;;;;;;;;;;2102842;28;2102;-75
2021/09/18 06:04:24;;;;;;;;;;;;;;;;;;2102817;27;4054;-75
2021/09/18 06:05:24;;;;;;;;;;;;;;;;;;2100810;28;4741;-75
2021/09/18 06:06:25;;;;;;;;;;;;;;;;;;2102821;28;2314;-75
2021/09/18 06:07:25;;;;;;;;;;;;;;;;;;2104327;28;2214;-75
2021/09/18 06:08:26;;;;;;;;;;;;;;;;;;2104010;28;2263;-75
2021/09/18 06:09:27;;;;;;;;;;;;;;;;;;2104114;28;1111;-75
2021/09/18 06:10:29;;;;;;;;;;;;;;;;;;2104715;28;1602;-75
2021/09/18 06:11:29;;;;;;;;;;;;;;;;;;2102519;28;2428;-75
2021/09/18 06:12:30;;;;;;;;;;;;;;;;;;2104934;28;2473;-75
2021/09/18 06:13:30;;;;;;;;;;;;;;;;;;2103544;28;2327;-75
2021/09/18 06:14:34;;;;;;;;;;;;;;;;;;2103739;28;3957;-75
2021/09/18 06:15:34;;;;;;;;;;;;;;;;;;2102947;28;4322;-75
2021/09/18 06:16:35;;;;;;;;;;;;;;;;;;2103485;28;3864;-75
2021/09/18 06:17:35;;;;;;;;;;;;;;;;;;2104192;28;2119;-75
2021/09/18 06:18:36;;;;;;;;;;;;;;;;;;2102560;28;4282;-75
2021/09/18 06:19:36;;;;;;;;;;;;;;;;;;2100053;28;4178;-75
2021/09/18 06:20:37;;;;;;;;;;;;;;;;;;2099145;28;3955;-75
2021/09/18 06:21:38;;;;;;;;;;;;;;;;;;2104161;28;1258;-75
2021/09/18 06:22:40;;;;;;;;;;;;;;;;;;2103044;28;3954;-75
2021/09/18 06:23:40;;;;;;;;;;;;;;;;;;2100991;28;4009;-76
2021/09/18 06:24:41;;;;;;;;;;;;;;;;;;2104387;28;1118;-75
2021/09/18 06:25:42;;;;;;;;;;;;;;;;;;2103418;28;3816;-75
2021/09/18 06:26:45;;;;;;;;;;;;;;;;;;2102858;28;4206;-75
2021/09/18 06:27:45;;;;;;;;;;;;;;;;;;2103053;28;4034;-75
2021/09/18 06:28:46;;;;;;;;;;;;;;;;;;2103778;28;1388;-75
2021/09/18 06:29:46;;;;;;;;;;;;;;;;;;2102859;28;1747;-75
2021/09/18 06:30:47;;;;;;;;;;;;;;;;;;2103603;28;1026;-75
2021/09/18 06:31:47;;;;;;;;;;;;;;;;;;2103884;28;1280;-75
2021/09/18 06:32:48;;;;;;;;;;;;;;;;;;2104648;27;2121;-75
2021/09/18 06:33:51;;;;;;;;;;;;;;;;;;2103110;28;1145;-75
2021/09/18 06:34:51;;;;;;;;;;;;;;;;;;2101745;28;2405;-75
2021/09/18 06:35:52;;;;;;;;;;;;;;;;;;2102162;28;4594;-75
2021/09/18 06:36:54;;;;;;;;;;;;;;;;;;2103828;28;2255;-75
2021/09/18 06:37:54;;;;;;;;;;;;;;;;;;2103439;28;2418;-75
2021/09/18 06:38:55;;;;;;;;;;;;;;;;;;2103632;28;2035;-75
2021/09/18 06:39:55;;;;;;;;;;;;;;;;;;2102537;28;2389;-75
2021/09/18 06:40:56;;;;;;;;;;;;;;;;;;2103410;28;2252;-75
2021/09/18 06:41:56;;;;;;;;;;;;;;;;;;2104219;28;1294;-75
2021/09/18 06:42:57;;;;;;;;;;;;;;;;;;2101328;28;4376;-75
2021/09/18 06:43:57;;;;;;;;;;;;;;;;;;2101929;28;3911;-75
2021/09/18 06:44:58;;;;;;;;;;;;;;;;;;2101835;28;3171;-75
2021/09/18 06:45:59;;;;;;;;;;;;;;;;;;2101253;28;4255;-75
2021/09/18 06:47:00;;;;;;;;;;;;;;;;;;2103316;28;2249;-75
2021/09/18 06:48:02;;;;;;;;;;;;;;;;;;2104499;28;1497;-75
2021/09/18 06:49:05;;;;;;;;;;;;;;;;;;2101797;28;4003;-75
2021/09/18 06:50:05;;;;;;;;;;;;;;;;;;2097375;28;4375;-75
2021/09/18 06:51:06;;;;;;;;;;;;;;;;;;2098895;28;3922;-75
2021/09/18 06:52:07;;;;;;;;;;;;;;;;;;2103365;28;4079;-75
2021/09/18 06:53:08;;;;;;;;;;;;;;;;;;2102119;28;3966;-75
2021/09/18 06:54:08;;;;;;;;;;;;;;;;;;2102168;28;4113;-75
2021/09/18 06:55:09;;;;;;;;;;;;;;;;;;2102389;27;4315;-75
2021/09/18 06:56:09;;;;;;;;;;;;;;;;;;2103198;28;4356;-75
2021/09/18 06:57:11;;;;;;;;;;;;;;;;;;2104928;28;1075;-75
2021/09/18 06:58:12;;;;;;;;;;;;;;;;;;2105069;28;1105;-75
2021/09/18 06:59:13;;;;;;;;;;;;;;;;;;2103363;28;2350;-75
2021/09/18 07:00:18;;;;;;;;;;;;;;;;;;2102998;27;4111;-75
2021/09/18 07:01:19;;;;;;;;;;;;;;;;;;2103134;28;1307;-75
2021/09/18 07:02:19;;;;;;;;;;;;;;;;;;2103892;28;1894;-75
2021/09/18 07:03:20;;;;;;;;;;;;;;;;;;2103332;28;1953;-75
2021/09/18 07:04:21;;;;;;;;;;;;;;;;;;2103716;28;2004;-75